sensor_id;sensor_type;location;lat;lon;timestamp;temperature;humidity
66257;DHT22;53049;43.446;3.698;2022-10-31T07:41:51;19.30;99.90
66257;DHT22;53049;43.446;3.698;2022-10-31T07:44:16;19.40;99.90
66257;DHT22;53049;43.446;3.698;2022-10-31T07:46:42;19.40;99.90
66257;DHT22;53049;43.446;3.698;2022-10-31T07:49:08;19.50;99.90
66257;DHT22;53049;43.446;3.698;2022-10-31T07:51:33;19.50;99.90
66257;DHT22;53049;43.446;3.698;2022-10-31T07:53:59;19.50;99.90
66257;DHT22;53049;43.446;3.698;2022-10-31T07:56:25;19.50;99.90
66257;DHT22;53049;43.446;3.698;2022-10-31T07:58:50;19.50;99.90
66257;DHT22;53049;43.446;3.698;2022-10-31T08:01:16;19.60;99.90
66257;DHT22;53049;43.446;3.698;2022-10-31T08:03:41;19.60;99.90
66257;DHT22;53049;43.446;3.698;2022-10-31T08:06:07;19.60;99.90
66257;DHT22;53049;43.446;3.698;2022-10-31T08:08:33;19.70;99.90
66257;DHT22;53049;43.446;3.698;2022-10-31T08:10:58;19.70;99.90
66257;DHT22;53049;43.446;3.698;2022-10-31T08:13:24;19.70;99.90
66257;DHT22;53049;43.446;3.698;2022-10-31T08:15:51;19.70;99.90
66257;DHT22;53049;43.446;3.698;2022-10-31T08:18:18;19.70;99.90
66257;DHT22;53049;43.446;3.698;2022-10-31T08:20:44;19.80;99.90
66257;DHT22;53049;43.446;3.698;2022-10-31T08:23:11;19.80;99.90
66257;DHT22;53049;43.446;3.698;2022-10-31T08:25:38;19.80;99.90
66257;DHT22;53049;43.446;3.698;2022-10-31T08:28:04;19.80;99.90
66257;DHT22;53049;43.446;3.698;2022-10-31T08:30:32;19.80;99.90
66257;DHT22;53049;43.446;3.698;2022-10-31T08:33:16;19.90;99.90
66257;DHT22;53049;43.446;3.698;2022-10-31T08:35:42;19.90;99.90
66257;DHT22;53049;43.446;3.698;2022-10-31T08:38:10;19.90;99.90
66257;DHT22;53049;43.446;3.698;2022-10-31T08:40:36;20.00;99.90
66257;DHT22;53049;43.446;3.698;2022-10-31T08:43:12;20.00;99.90
66257;DHT22;53049;43.446;3.698;2022-10-31T08:45:38;20.00;99.90
66257;DHT22;53049;43.446;3.698;2022-10-31T08:48:09;20.10;99.90
66257;DHT22;53049;43.446;3.698;2022-10-31T08:50:36;20.10;99.90
66257;DHT22;53049;43.446;3.698;2022-10-31T08:53:03;20.10;99.90
66257;DHT22;53049;43.446;3.698;2022-10-31T08:55:29;20.10;99.90
66257;DHT22;53049;43.446;3.698;2022-10-31T08:57:58;20.20;99.90
66257;DHT22;53049;43.446;3.698;2022-10-31T09:00:24;20.20;99.90
66257;DHT22;53049;43.446;3.698;2022-10-31T09:03:03;20.20;99.90
66257;DHT22;53049;43.446;3.698;2022-10-31T09:05:30;20.30;99.90
66257;DHT22;53049;43.446;3.698;2022-10-31T09:07:59;20.40;99.90
66257;DHT22;53049;43.446;3.698;2022-10-31T09:10:27;20.40;99.90
66257;DHT22;53049;43.446;3.698;2022-10-31T09:13:03;20.40;99.90
66257;DHT22;53049;43.446;3.698;2022-10-31T09:15:32;20.40;99.90
66257;DHT22;53049;43.446;3.698;2022-10-31T09:17:58;20.40;99.90
66257;DHT22;53049;43.446;3.698;2022-10-31T09:20:24;20.40;99.90
66257;DHT22;53049;43.446;3.698;2022-10-31T09:22:57;20.40;99.90
66257;DHT22;53049;43.446;3.698;2022-10-31T09:25:23;20.50;99.90
66257;DHT22;53049;43.446;3.698;2022-10-31T09:27:49;20.50;99.90
66257;DHT22;53049;43.446;3.698;2022-10-31T09:30:14;20.60;99.90
66257;DHT22;53049;43.446;3.698;2022-10-31T09:32:40;20.70;99.90
66257;DHT22;53049;43.446;3.698;2022-10-31T09:35:06;20.60;99.90
66257;DHT22;53049;43.446;3.698;2022-10-31T09:37:32;20.60;99.90
66257;DHT22;53049;43.446;3.698;2022-10-31T09:39:58;20.60;99.90
66257;DHT22;53049;43.446;3.698;2022-10-31T09:42:45;20.60;99.90
66257;DHT22;53049;43.446;3.698;2022-10-31T09:50:51;20.70;99.90
66257;DHT22;53049;43.446;3.698;2022-10-31T09:55:48;21.00;99.90
66257;DHT22;53049;43.446;3.698;2022-10-31T09:58:28;21.00;99.90
66257;DHT22;53049;43.446;3.698;2022-10-31T10:00:58;20.90;99.90
66257;DHT22;53049;43.446;3.698;2022-10-31T10:03:41;20.80;99.90
66257;DHT22;53049;43.446;3.698;2022-10-31T10:06:17;20.80;99.90
66257;DHT22;53049;43.446;3.698;2022-10-31T10:08:44;20.80;99.90
66257;DHT22;53049;43.446;3.698;2022-10-31T10:11:39;20.80;99.90
66257;DHT22;53049;43.446;3.698;2022-10-31T10:14:50;20.80;99.90
66257;DHT22;53049;43.446;3.698;2022-10-31T10:17:43;20.80;99.90
66257;DHT22;53049;43.446;3.698;2022-10-31T10:26:17;21.10;99.90
66257;DHT22;53049;43.446;3.698;2022-10-31T10:28:49;21.10;99.90
66257;DHT22;53049;43.446;3.698;2022-10-31T10:31:21;21.20;99.90
66257;DHT22;53049;43.446;3.698;2022-10-31T10:33:58;21.20;99.90
66257;DHT22;53049;43.446;3.698;2022-10-31T10:36:52;21.30;99.90
66257;DHT22;53049;43.446;3.698;2022-10-31T10:39:47;21.30;99.90
66257;DHT22;53049;43.446;3.698;2022-10-31T10:42:15;21.30;99.90
66257;DHT22;53049;43.446;3.698;2022-10-31T10:45:01;21.40;99.90
66257;DHT22;53049;43.446;3.698;2022-10-31T10:47:56;21.40;99.90
66257;DHT22;53049;43.446;3.698;2022-10-31T10:50:35;21.40;99.90
66257;DHT22;53049;43.446;3.698;2022-10-31T10:55:51;21.40;99.90
66257;DHT22;53049;43.446;3.698;2022-10-31T10:58:19;21.40;99.90
66257;DHT22;53049;43.446;3.698;2022-10-31T11:00:46;21.40;99.90
66257;DHT22;53049;43.446;3.698;2022-10-31T11:03:14;21.40;99.90
66257;DHT22;53049;43.446;3.698;2022-10-31T11:05:56;21.40;99.90
66257;DHT22;53049;43.446;3.698;2022-10-31T11:08:32;21.40;99.90
66257;DHT22;53049;43.446;3.698;2022-10-31T11:13:49;21.50;99.90
66257;DHT22;53049;43.446;3.698;2022-10-31T11:16:40;21.50;99.90
66257;DHT22;53049;43.446;3.698;2022-10-31T11:19:17;21.40;99.90
66257;DHT22;53049;43.446;3.698;2022-10-31T11:21:44;21.40;99.90
66257;DHT22;53049;43.446;3.698;2022-10-31T11:26:39;21.50;99.90
66257;DHT22;53049;43.446;3.698;2022-10-31T11:29:13;21.50;99.90
66257;DHT22;53049;43.446;3.698;2022-10-31T11:31:39;21.50;99.90
66257;DHT22;53049;43.446;3.698;2022-10-31T11:34:13;21.50;99.90
66257;DHT22;53049;43.446;3.698;2022-10-31T11:36:42;21.40;99.90
66257;DHT22;53049;43.446;3.698;2022-10-31T11:39:23;21.40;99.90
66257;DHT22;53049;43.446;3.698;2022-10-31T11:41:51;21.40;99.90
66257;DHT22;53049;43.446;3.698;2022-10-31T11:44:25;21.30;99.90
66257;DHT22;53049;43.446;3.698;2022-10-31T11:46:55;21.30;99.90
66257;DHT22;53049;43.446;3.698;2022-10-31T11:49:38;21.30;99.90
66257;DHT22;53049;43.446;3.698;2022-10-31T11:52:17;21.40;99.90
66257;DHT22;53049;43.446;3.698;2022-10-31T11:54:48;21.40;99.90
66257;DHT22;53049;43.446;3.698;2022-10-31T11:57:31;21.30;99.90
66257;DHT22;53049;43.446;3.698;2022-10-31T11:59:59;21.40;99.90
66257;DHT22;53049;43.446;3.698;2022-10-31T12:02:26;21.40;99.90
66257;DHT22;53049;43.446;3.698;2022-10-31T12:05:23;21.40;99.90
66257;DHT22;53049;43.446;3.698;2022-10-31T12:07:53;21.50;99.90
66257;DHT22;53049;43.446;3.698;2022-10-31T12:10:21;21.60;99.90
66257;DHT22;53049;43.446;3.698;2022-10-31T12:15:31;21.60;99.90
66257;DHT22;53049;43.446;3.698;2022-10-31T12:40:33;21.60;99.90
66257;DHT22;53049;43.446;3.698;2022-10-31T12:46:03;21.60;99.90
66257;DHT22;53049;43.446;3.698;2022-10-31T12:59:34;21.80;99.90
66257;DHT22;53049;43.446;3.698;2022-10-31T13:10:44;21.90;99.90
66257;DHT22;53049;43.446;3.698;2022-10-31T13:16:04;22.00;99.90
66257;DHT22;53049;43.446;3.698;2022-10-31T13:18:48;22.10;99.90
66257;DHT22;53049;43.446;3.698;2022-10-31T13:21:21;22.00;99.90
66257;DHT22;53049;43.446;3.698;2022-10-31T13:23:49;22.00;99.90
66257;DHT22;53049;43.446;3.698;2022-10-31T13:26:54;21.90;99.90
66257;DHT22;53049;43.446;3.698;2022-10-31T13:29:26;21.80;99.90
66257;DHT22;53049;43.446;3.698;2022-10-31T13:31:54;21.70;99.90
66257;DHT22;53049;43.446;3.698;2022-10-31T13:34:33;21.70;99.90
66257;DHT22;53049;43.446;3.698;2022-10-31T13:40:19;21.60;99.90
66257;DHT22;53049;43.446;3.698;2022-10-31T13:45:20;21.60;99.90
66257;DHT22;53049;43.446;3.698;2022-10-31T13:50:32;21.50;99.90
66257;DHT22;53049;43.446;3.698;2022-10-31T13:53:19;21.50;99.90
66257;DHT22;53049;43.446;3.698;2022-10-31T13:56:01;21.50;99.90
66257;DHT22;53049;43.446;3.698;2022-10-31T13:58:31;21.40;99.90
66257;DHT22;53049;43.446;3.698;2022-10-31T14:03:40;21.40;99.90
66257;DHT22;53049;43.446;3.698;2022-10-31T14:06:09;21.30;99.90
66257;DHT22;53049;43.446;3.698;2022-10-31T14:08:47;21.30;99.90
66257;DHT22;53049;43.446;3.698;2022-10-31T14:11:26;21.30;99.90
66257;DHT22;53049;43.446;3.698;2022-10-31T14:13:55;21.30;99.90
66257;DHT22;53049;43.446;3.698;2022-10-31T14:16:28;21.30;99.90
66257;DHT22;53049;43.446;3.698;2022-10-31T14:19:07;21.30;99.90
66257;DHT22;53049;43.446;3.698;2022-10-31T14:21:44;21.30;99.90
66257;DHT22;53049;43.446;3.698;2022-10-31T14:26:56;21.30;99.90
66257;DHT22;53049;43.446;3.698;2022-10-31T14:29:32;21.30;99.90
66257;DHT22;53049;43.446;3.698;2022-10-31T14:40:24;21.20;99.90
66257;DHT22;53049;43.446;3.698;2022-10-31T14:48:52;21.20;99.90
66257;DHT22;53049;43.446;3.698;2022-10-31T14:51:38;21.10;99.90
66257;DHT22;53049;43.446;3.698;2022-10-31T14:54:06;21.10;99.90
66257;DHT22;53049;43.446;3.698;2022-10-31T14:56:34;21.10;99.90
66257;DHT22;53049;43.446;3.698;2022-10-31T14:59:07;21.10;99.90
66257;DHT22;53049;43.446;3.698;2022-10-31T15:01:36;21.10;99.90
66257;DHT22;53049;43.446;3.698;2022-10-31T15:04:22;21.10;99.90
66257;DHT22;53049;43.446;3.698;2022-10-31T15:07:02;21.00;99.90
66257;DHT22;53049;43.446;3.698;2022-10-31T15:09:32;21.10;99.90
66257;DHT22;53049;43.446;3.698;2022-10-31T15:12:28;21.00;99.90
66257;DHT22;53049;43.446;3.698;2022-10-31T15:14:54;21.00;99.90
66257;DHT22;53049;43.446;3.698;2022-10-31T15:17:22;21.00;99.90
66257;DHT22;53049;43.446;3.698;2022-10-31T15:19:48;21.00;99.90
66257;DHT22;53049;43.446;3.698;2022-10-31T15:22:19;21.00;99.90
66257;DHT22;53049;43.446;3.698;2022-10-31T15:24:47;21.00;99.90
66257;DHT22;53049;43.446;3.698;2022-10-31T15:27:15;21.00;99.90
66257;DHT22;53049;43.446;3.698;2022-10-31T15:29:55;21.00;99.90
66257;DHT22;53049;43.446;3.698;2022-10-31T15:32:26;21.00;99.90
66257;DHT22;53049;43.446;3.698;2022-10-31T15:34:53;20.90;99.90
66257;DHT22;53049;43.446;3.698;2022-10-31T15:37:21;21.00;99.90
66257;DHT22;53049;43.446;3.698;2022-10-31T15:39:48;21.00;99.90
66257;DHT22;53049;43.446;3.698;2022-10-31T15:45:16;20.90;99.90
66257;DHT22;53049;43.446;3.698;2022-10-31T15:48:03;20.90;99.90
66257;DHT22;53049;43.446;3.698;2022-10-31T15:50:40;20.90;99.90
66257;DHT22;53049;43.446;3.698;2022-10-31T15:53:16;20.90;99.90
66257;DHT22;53049;43.446;3.698;2022-10-31T15:55:57;20.90;99.90
66257;DHT22;53049;43.446;3.698;2022-10-31T15:58:24;20.80;99.90
66257;DHT22;53049;43.446;3.698;2022-10-31T16:01:05;20.80;99.90
66257;DHT22;53049;43.446;3.698;2022-10-31T16:03:33;20.80;99.90
66257;DHT22;53049;43.446;3.698;2022-10-31T16:06:04;20.80;99.90
66257;DHT22;53049;43.446;3.698;2022-10-31T16:11:14;20.70;99.90
66257;DHT22;53049;43.446;3.698;2022-10-31T16:14:00;20.70;99.90
66257;DHT22;53049;43.446;3.698;2022-10-31T16:16:28;20.70;99.90
66257;DHT22;53049;43.446;3.698;2022-10-31T16:18:55;20.70;99.90
66257;DHT22;53049;43.446;3.698;2022-10-31T16:21:27;20.70;99.90
66257;DHT22;53049;43.446;3.698;2022-10-31T16:23:59;20.70;99.90
66257;DHT22;53049;43.446;3.698;2022-10-31T16:26:26;20.70;99.90
66257;DHT22;53049;43.446;3.698;2022-10-31T16:28:57;20.70;99.90
66257;DHT22;53049;43.446;3.698;2022-10-31T16:31:29;20.70;99.90
66257;DHT22;53049;43.446;3.698;2022-10-31T16:34:05;20.70;99.90
66257;DHT22;53049;43.446;3.698;2022-10-31T16:36:33;20.60;99.90
66257;DHT22;53049;43.446;3.698;2022-10-31T16:39:01;20.60;99.90
66257;DHT22;53049;43.446;3.698;2022-10-31T16:41:27;20.60;99.90
66257;DHT22;53049;43.446;3.698;2022-10-31T16:43:53;20.60;99.90
66257;DHT22;53049;43.446;3.698;2022-10-31T16:46:24;20.60;99.90
66257;DHT22;53049;43.446;3.698;2022-10-31T16:48:50;20.60;99.90
66257;DHT22;53049;43.446;3.698;2022-10-31T16:51:16;20.60;99.90
66257;DHT22;53049;43.446;3.698;2022-10-31T16:53:42;20.60;99.90
66257;DHT22;53049;43.446;3.698;2022-10-31T16:56:16;20.60;99.90
66257;DHT22;53049;43.446;3.698;2022-10-31T16:58:43;20.60;99.90
66257;DHT22;53049;43.446;3.698;2022-10-31T17:01:09;20.60;99.90
66257;DHT22;53049;43.446;3.698;2022-10-31T17:03:37;20.60;99.90
66257;DHT22;53049;43.446;3.698;2022-10-31T17:06:02;20.60;99.90
66257;DHT22;53049;43.446;3.698;2022-10-31T17:08:28;20.60;99.90
66257;DHT22;53049;43.446;3.698;2022-10-31T17:10:56;20.60;99.90
66257;DHT22;53049;43.446;3.698;2022-10-31T17:13:29;20.60;99.90
66257;DHT22;53049;43.446;3.698;2022-10-31T17:15:57;20.50;99.90
66257;DHT22;53049;43.446;3.698;2022-10-31T17:18:24;20.60;99.90
